Time;durP1;ratioP1;P1;durP2;ratioP2;P2;SDS_P1;SDS_P2;PMS_P1;PMS_P2;Temp;Humidity;BMP_temperature;BMP_pressure;BME280_temperature;BME280_humidity;BME280_pressure;Samples;Min_cycle;Max_cycle;Signal;HPM_P1;HPM_P2
2022/08/19 00:02:41;;;;;;;11.85;9.58;;;;;;;24.69;56.29;99572.28;1984318;89;27937;-72
2022/08/19 00:05:47;;;;;;;11.10;9.48;;;;;;;24.68;56.40;99569.22;1983071;89;28663;-76
2022/08/19 00:08:51;;;;;;;10.98;9.05;;;;;;;24.66;56.60;99560.86;1986152;89;31000;-76
2022/08/19 00:11:55;;;;;;;11.80;10.63;;;;;;;24.63;56.75;99564.84;1987149;89;32999;-75
2022/08/19 00:14:56;;;;;;;;;;;;;;;24.60;56.75;99558.36;2000669;89;29415;-74
2022/08/19 00:18:00;;;;;;;13.58;11.65;;;;;;;24.55;56.95;99554.81;1987254;89;28160;-75
2022/08/19 00:21:03;;;;;;;13.40;11.47;;;;;;;24.52;56.95;99546.09;1960043;88;30137;-74
2022/08/19 00:24:12;;;;;;;11.50;9.70;;;;;;;24.47;57.00;99539.81;1986696;89;31081;-68
2022/08/19 00:27:16;;;;;;;11.68;8.48;;;;;;;24.42;57.48;99530.80;1980751;89;33040;-68
2022/08/19 00:30:17;;;;;;;13.00;9.10;;;;;;;24.39;57.14;99522.95;1989990;89;37612;-75
2022/08/19 00:33:23;;;;;;;10.20;8.60;;;;;;;24.35;57.37;99515.30;1986932;89;27962;-72
2022/08/19 00:36:26;;;;;;;10.30;8.40;;;;;;;24.31;57.44;99523.55;1989928;89;28717;-76
2022/08/19 00:39:30;;;;;;;10.10;8.98;;;;;;;24.26;57.53;99509.05;1989838;88;31032;-71
2022/08/19 00:42:32;;;;;;;10.08;9.08;;;;;;;24.22;57.60;99507.71;1989946;88;33047;-75
2022/08/19 00:45:35;;;;;;;12.43;9.68;;;;;;;24.19;57.98;99501.23;1989473;89;29776;-76
2022/08/19 00:48:42;;;;;;;13.58;10.30;;;;;;;24.14;58.13;99511.38;1986712;89;27920;-68
2022/08/19 00:51:51;;;;;;;10.93;9.83;;;;;;;24.07;58.11;99514.00;1960220;88;28611;-74
2022/08/19 00:54:57;;;;;;;12.18;9.75;;;;;;;24.01;58.17;99517.45;1987474;89;31049;-68
2022/08/19 00:58:09;;;;;;;11.15;10.00;;;;;;;23.93;58.25;99512.03;1981203;89;33088;-67
2022/08/19 01:01:16;;;;;;;13.58;9.45;;;;;;;23.83;58.42;99507.64;1965804;90;27890;-70
2022/08/19 01:04:22;;;;;;;;;;;;;;;23.75;58.64;99518.66;1990134;89;27711;-66
2022/08/19 01:07:26;;;;;;;12.18;9.63;;;;;;;23.71;58.77;99518.67;1987844;89;28811;-65
2022/08/19 01:10:41;;;;;;;15.93;10.43;;;;;;;23.66;58.83;99534.80;1981105;89;30897;-66
2022/08/19 01:13:51;;;;;;;12.58;10.35;;;;;;;23.64;59.13;99528.13;1965233;89;33900;-65
2022/08/19 01:17:01;;;;;;;12.07;10.88;;;;;;;23.63;59.32;99503.70;1987339;89;29460;-66
2022/08/19 01:20:16;;;;;;;12.43;10.28;;;;;;;23.62;59.57;99507.47;1980522;89;27904;-67
2022/08/19 01:23:42;;;;;;;14.07;9.93;;;;;;;23.57;59.84;99488.88;1995503;89;28884;-64
2022/08/19 01:26:33;;;;;;;14.13;10.65;;;;;;;23.54;59.88;99484.27;1992646;88;27946;-66
2022/08/19 01:29:41;;;;;;;10.28;9.28;;;;;;;23.52;60.12;99476.26;1995167;88;33036;-67
2022/08/19 01:32:46;;;;;;;11.28;10.13;;;;;;;23.49;60.43;99476.61;1961845;90;29394;-66
2022/08/19 01:35:52;;;;;;;;;;;;;;;23.44;60.37;99466.23;1999381;89;27843;-66
2022/08/19 01:39:01;;;;;;;10.50;9.50;;;;;;;23.41;60.49;99450.19;1995350;89;28843;-67
2022/08/19 01:42:10;;;;;;;14.78;11.10;;;;;;;23.39;60.62;99436.37;1961958;90;31830;-70
2022/08/19 01:45:14;;;;;;;14.15;10.25;;;;;;;23.38;60.64;99435.51;1995531;87;32979;-67
2022/08/19 01:48:23;;;;;;;13.18;10.28;;;;;;;23.38;60.66;99444.23;1962440;90;29338;-66
2022/08/19 01:51:30;;;;;;;11.80;9.63;;;;;;;23.37;60.71;99444.73;1983793;89;27981;-68
2022/08/19 01:54:34;;;;;;;13.07;9.67;;;;;;;23.36;60.68;99444.41;1984214;89;28841;-66
2022/08/19 01:57:41;;;;;;;13.53;10.30;;;;;;;23.34;60.80;99443.72;1984032;89;31092;-66
2022/08/19 02:00:45;;;;;;;11.45;10.23;;;;;;;23.32;60.79;99444.45;1983990;89;33004;-70
2022/08/19 02:03:56;;;;;;;10.20;9.07;;;;;;;23.30;60.69;99438.31;1984230;89;29341;-73
2022/08/19 02:07:07;;;;;;;10.68;8.90;;;;;;;23.27;60.78;99449.06;1983731;89;28017;-66
2022/08/19 02:10:20;;;;;;;10.40;9.35;;;;;;;23.16;60.86;99440.75;1984165;89;28665;-68
2022/08/19 02:13:29;;;;;;;11.95;10.40;;;;;;;23.17;61.00;99445.16;1977591;89;27933;-68
2022/08/19 02:16:38;;;;;;;14.05;9.93;;;;;;;23.12;60.96;99454.44;1983851;89;32996;-68
2022/08/19 02:19:44;;;;;;;13.45;10.45;;;;;;;23.07;61.21;99456.84;1985490;89;29403;-68
2022/08/19 02:22:51;;;;;;;12.75;10.28;;;;;;;22.99;61.23;99450.91;1965996;90;27942;-67
2022/08/19 02:25:56;;;;;;;12.20;9.73;;;;;;;22.95;61.24;99444.61;1987711;89;28650;-69
2022/08/19 02:29:01;;;;;;;11.05;9.88;;;;;;;22.90;61.46;99435.59;1981236;89;31661;-68
2022/08/19 02:32:06;;;;;;;13.28;10.35;;;;;;;22.85;61.66;99421.61;1981163;89;32974;-66
2022/08/19 02:35:16;;;;;;;13.85;9.70;;;;;;;22.81;61.76;99425.72;1965765;90;53639;-66
2022/08/19 02:38:27;;;;;;;13.58;10.45;;;;;;;22.76;61.88;99427.63;1987331;89;27980;-69
2022/08/19 02:41:39;;;;;;;13.25;9.70;;;;;;;22.71;61.96;99428.16;1980913;89;28778;-68
2022/08/19 02:44:45;;;;;;;12.00;9.78;;;;;;;22.66;61.99;99427.83;1988143;89;31025;-68
2022/08/19 02:47:50;;;;;;;15.83;10.80;;;;;;;22.61;62.22;99418.81;1961908;89;33198;-70
2022/08/19 02:50:59;;;;;;;11.53;10.32;;;;;;;22.55;62.33;99412.68;1987474;89;29334;-66
2022/08/19 02:54:09;;;;;;;11.85;10.45;;;;;;;22.49;62.72;99418.87;1981134;89;27953;-68
2022/08/19 02:57:13;;;;;;;11.50;10.35;;;;;;;22.45;62.57;99421.59;1966141;90;28665;-69
2022/08/19 03:00:20;;;;;;;16.02;10.13;;;;;;;22.41;62.74;99421.57;1987902;89;31184;-70
2022/08/19 03:03:24;;;;;;;12.85;10.43;;;;;;;22.35;63.10;99428.59;1981450;89;32970;-72
2022/08/19 03:06:31;;;;;;;11.73;10.28;;;;;;;22.32;63.00;99426.20;1966295;88;29344;-70
2022/08/19 03:09:39;;;;;;;12.20;10.98;;;;;;;22.25;63.22;99419.22;1987932;89;27926;-69
2022/08/19 03:12:46;;;;;;;11.83;10.70;;;;;;;22.20;63.28;99413.95;1981029;89;27972;-67
2022/08/19 03:15:58;;;;;;;12.93;10.70;;;;;;;22.16;63.78;99418.92;1966235;90;31087;-70
2022/08/19 03:19:07;;;;;;;13.50;10.48;;;;;;;22.12;63.48;99418.39;1979154;89;29622;-68
2022/08/19 03:22:16;;;;;;;11.90;10.78;;;;;;;22.08;63.72;99432.06;1987944;89;29321;-69
2022/08/19 03:25:24;;;;;;;12.43;11.10;;;;;;;22.04;63.64;99445.70;1981713;89;27846;-69
2022/08/19 03:28:36;;;;;;;13.78;10.38;;;;;;;21.98;63.99;99458.64;1988026;88;28671;-66
2022/08/19 03:31:42;;;;;;;12.88;11.45;;;;;;;21.90;64.13;99458.66;1981526;89;31232;-68
2022/08/19 03:34:50;;;;;;;14.13;12.10;;;;;;;21.83;64.31;99453.88;1987965;89;33024;-67
2022/08/19 03:37:58;;;;;;;16.73;12.70;;;;;;;21.78;64.34;99452.69;1957468;89;29468;-67
2022/08/19 03:41:06;;;;;;;14.43;12.60;;;;;;;21.74;64.50;99458.13;1988021;89;27731;-67
2022/08/19 03:44:16;;;;;;;18.70;12.30;;;;;;;21.69;64.59;99452.67;1984025;89;30389;-75
2022/08/19 03:47:28;;;;;;;13.78;12.00;;;;;;;21.65;64.81;99455.42;1987368;89;31481;-70
2022/08/19 03:50:41;;;;;;;13.95;11.28;;;;;;;21.61;64.85;99461.35;1981150;88;29814;-68
2022/08/19 03:53:49;;;;;;;15.55;12.78;;;;;;;21.57;65.05;99455.36;1987494;88;29386;-67
2022/08/19 03:56:55;;;;;;;14.28;12.78;;;;;;;21.54;65.19;99455.70;1981318;89;27901;-69
2022/08/19 04:00:07;;;;;;;13.95;12.00;;;;;;;21.51;65.31;99454.70;1987620;89;28674;-66
2022/08/19 04:03:13;;;;;;;20.45;13.55;;;;;;;21.49;65.38;99462.18;1979305;89;31104;-77
2022/08/19 04:06:25;;;;;;;14.35;11.80;;;;;;;21.47;65.56;99470.51;1984683;89;33200;-70
2022/08/19 04:09:34;;;;;;;14.10;11.43;;;;;;;21.47;65.73;99469.67;1979095;89;29452;-70
2022/08/19 04:12:36;;;;;;;16.12;12.93;;;;;;;21.49;65.98;99484.81;1990782;88;27554;-75
2022/08/19 04:15:42;;;;;;;14.25;12.20;;;;;;;21.52;66.05;99488.58;1981267;89;29183;-72
2022/08/19 04:18:50;;;;;;;13.53;11.97;;;;;;;21.57;66.16;99485.34;1988561;88;31737;-74
2022/08/19 04:21:55;;;;;;;15.18;13.15;;;;;;;21.65;66.33;99479.08;1962582;90;33747;-75
2022/08/19 04:25:03;;;;;;;15.70;13.65;;;;;;;21.72;66.40;99481.48;1984186;89;29317;-71
2022/08/19 04:28:11;;;;;;;16.77;14.85;;;;;;;21.81;66.39;99497.34;1984150;89;27810;-72
2022/08/19 04:31:22;;;;;;;18.77;14.55;;;;;;;21.90;66.33;99498.20;1984256;89;28675;-75
2022/08/19 04:34:29;;;;;;;17.37;14.07;;;;;;;22.02;66.36;99494.11;1995689;89;31034;-75
2022/08/19 04:37:37;;;;;;;16.25;13.28;;;;;;;22.16;66.34;99493.94;1994299;88;35047;-75
2022/08/19 04:44:17;;;;;;;17.65;13.60;;;;;;;22.44;66.06;99482.67;1984100;89;27969;-74
2022/08/19 04:47:26;;;;;;;14.87;13.30;;;;;;;22.60;65.89;99478.53;1983930;89;28765;-71
2022/08/19 04:50:35;;;;;;;16.62;12.98;;;;;;;22.77;65.84;99473.02;1983762;89;31079;-70
2022/08/19 04:53:43;;;;;;;16.52;14.70;;;;;;;22.93;65.69;99473.98;1984269;89;33196;-72
2022/08/19 04:56:45;;;;;;;19.48;14.75;;;;;;;23.11;65.49;99480.55;1998683;88;29171;-76
2022/08/19 05:00:00;;;;;;;19.70;15.17;;;;;;;23.25;65.31;99488.02;1983909;89;27960;-72
2022/08/19 05:03:07;;;;;;;20.97;14.33;;;;;;;23.46;65.26;99493.38;1995486;88;28658;-68
2022/08/19 05:06:20;;;;;;;15.10;13.48;;;;;;;23.69;64.97;99477.52;1946909;90;31221;-72
2022/08/19 05:09:28;;;;;;;17.67;13.70;;;;;;;23.85;64.67;99478.75;1946861;90;33060;-70
2022/08/19 05:12:35;;;;;;;16.62;13.60;;;;;;;23.95;64.31;99467.56;1947103;90;27971;-72
2022/08/19 05:15:40;;;;;;;;;;;;;;;24.09;64.11;99468.66;1949643;90;27847;-75
2022/08/19 05:22:35;;;;;;;16.15;13.75;;;;;;;24.28;63.44;99473.60;1983427;89;32089;-77
2022/08/19 05:25:43;;;;;;;20.52;13.95;;;;;;;24.34;63.29;99474.73;1986458;89;33203;-74
2022/08/19 05:28:47;;;;;;;17.37;14.55;;;;;;;24.44;63.30;99486.80;1996864;88;29310;-71
2022/08/19 05:31:51;;;;;;;;;;;;;;;24.62;63.20;99481.47;1985035;89;27892;-74
2022/08/19 05:34:55;;;;;;;20.02;15.60;;;;;;;24.78;62.98;99473.63;1985795;89;28708;-76
2022/08/19 05:37:57;;;;;;;19.75;16.23;;;;;;;24.87;62.69;99469.73;1985693;89;31082;-73
2022/08/19 05:41:08;;;;;;;18.40;15.08;;;;;;;25.00;62.60;99472.66;1983500;89;33020;-67
2022/08/19 05:44:12;;;;;;;19.42;15.18;;;;;;;25.17;62.48;99472.44;1980656;89;29534;-70
2022/08/19 05:47:20;;;;;;;21.55;17.77;;;;;;;25.23;62.00;99484.55;1957372;89;27759;-67
2022/08/19 05:50:26;;;;;;;20.37;15.50;;;;;;;25.32;61.67;99497.09;1983959;89;28649;-72
2022/08/19 05:53:33;;;;;;;16.67;14.70;;;;;;;25.31;61.32;99496.75;1983638;89;31458;-69
2022/08/19 05:56:40;;;;;;;19.10;14.78;;;;;;;25.31;61.38;99488.03;1986873;89;33697;-71
2022/08/19 05:59:51;;;;;;;17.05;15.23;;;;;;;25.45;61.68;99484.09;1983886;89;29321;-69
2022/08/19 06:02:59;;;;;;;20.30;15.10;;;;;;;25.55;61.15;99476.92;1995408;88;27848;-68
2022/08/19 06:06:06;;;;;;;19.25;15.15;;;;;;;25.66;61.14;99464.05;1983840;89;28673;-72
2022/08/19 06:09:09;;;;;;;18.57;15.38;;;;;;;25.83;60.98;99478.88;1995202;88;31016;-72
2022/08/19 06:12:11;;;;;;;19.75;16.15;;;;;;;25.99;60.61;99493.70;1987089;89;32972;-72
2022/08/19 06:15:17;;;;;;;26.60;15.35;;;;;;;26.11;60.34;99499.55;1995208;89;29375;-71
2022/08/19 06:18:22;;;;;;;15.80;14.28;;;;;;;26.28;60.35;99504.76;1983908;89;27920;-73
2022/08/19 06:21:30;;;;;;;17.77;14.78;;;;;;;26.39;59.86;99507.78;1997650;88;28676;-75
2022/08/19 06:24:42;;;;;;;16.02;13.62;;;;;;;26.54;59.88;99518.69;1984747;89;31604;-74
2022/08/19 06:27:44;;;;;;;16.05;14.40;;;;;;;26.75;59.38;99526.55;1979585;89;34156;-72
2022/08/19 06:30:46;;;;;;;19.05;15.85;;;;;;;27.05;59.33;99536.48;1949522;91;29397;-68
2022/08/19 06:33:52;;;;;;;17.92;14.03;;;;;;;27.35;58.90;99538.41;1949374;90;27720;-73
2022/08/19 06:37:02;;;;;;;16.70;13.35;;;;;;;27.69;58.82;99534.44;1861852;93;28008;-76
2022/08/19 06:40:15;;;;;;;18.27;15.20;;;;;;;28.11;58.59;99536.55;1894254;93;30749;-75
2022/08/19 06:43:22;;;;;;;17.52;14.10;;;;;;;28.51;58.09;99553.61;1853605;94;33103;-74
2022/08/19 06:46:30;;;;;;;15.95;13.78;;;;;;;28.90;57.67;99551.91;1877054;94;29388;-70
2022/08/19 06:49:33;;;;;;;21.82;15.32;;;;;;;29.29;56.55;99567.73;1879430;94;27879;-75
2022/08/19 06:52:36;;;;;;;22.70;14.38;;;;;;;29.65;56.33;99579.59;1879399;94;28684;-74
2022/08/19 06:55:40;;;;;;;22.10;14.50;;;;;;;29.92;55.24;99569.77;1876604;94;31557;-71
2022/08/19 06:58:43;;;;;;;18.57;13.48;;;;;;;30.14;54.86;99584.66;1879988;94;32986;-68
2022/08/19 07:01:49;;;;;;;17.60;13.28;;;;;;;30.38;54.42;99589.05;1879858;94;29327;-70
2022/08/19 07:04:52;;;;;;;18.55;12.65;;;;;;;30.62;53.59;99583.23;1879919;94;27979;-72
2022/08/19 07:07:57;;;;;;;16.05;13.05;;;;;;;30.85;53.35;99585.91;1879597;93;27813;-71
2022/08/19 07:10:58;;;;;;;18.02;13.93;;;;;;;31.15;52.65;99581.92;1879748;94;31050;-71
2022/08/19 07:14:03;;;;;;;19.05;13.20;;;;;;;31.24;51.77;99595.44;1876353;94;33122;-68
2022/08/19 07:17:16;;;;;;;19.85;13.85;;;;;;;31.28;51.77;99591.14;1879851;94;29347;-72
2022/08/19 07:20:14;;;;;;;17.50;12.00;;;;;;;31.55;51.17;99586.66;1879299;93;27984;-71
2022/08/19 07:23:16;;;;;;;18.05;11.35;;;;;;;31.66;50.68;99588.11;1879681;94;28707;-71
2022/08/19 07:26:24;;;;;;;20.25;12.68;;;;;;;31.95;50.39;99596.69;1879440;94;31124;-70
2022/08/19 07:29:34;;;;;;;17.35;13.28;;;;;;;32.25;49.98;99594.98;1875966;94;33136;-70
2022/08/19 07:32:40;;;;;;;13.03;10.70;;;;;;;32.40;49.36;99595.97;1876667;94;29540;-67
2022/08/19 07:35:47;;;;;;;16.10;11.57;;;;;;;32.65;48.82;99606.00;1876501;94;27986;-70
2022/08/19 07:38:54;;;;;;;15.10;11.18;;;;;;;32.89;48.52;99606.89;1879666;93;29379;-68
2022/08/19 07:41:59;;;;;;;17.35;9.68;;;;;;;33.17;48.21;99606.71;1929369;92;31055;-74
2022/08/19 07:45:03;;;;;;;16.65;10.78;;;;;;;33.33;47.62;99615.69;1898327;93;33038;-72
2022/08/19 07:48:04;;;;;;;12.07;9.53;;;;;;;33.50;46.86;99615.48;1890975;93;29399;-71
2022/08/19 07:51:10;;;;;;;11.83;9.78;;;;;;;33.69;46.46;99614.76;1929530;92;27787;-74
2022/08/19 07:54:21;;;;;;;13.05;9.43;;;;;;;33.77;45.99;99614.38;1960687;90;28700;-72
2022/08/19 07:57:28;;;;;;;13.50;10.88;;;;;;;34.00;45.25;99614.04;1963870;90;31240;-75
2022/08/19 08:00:31;;;;;;;12.03;9.00;;;;;;;34.17;45.19;99612.67;1998058;89;32960;-73
2022/08/19 08:10:26;;;;;;;13.32;10.58;;;;;;;34.65;43.49;99616.88;1983611;89;29178;-68
2022/08/19 08:13:30;;;;;;;18.32;11.18;;;;;;;34.77;43.19;99622.89;1995467;89;31050;-69
2022/08/19 08:16:37;;;;;;;16.93;10.13;;;;;;;35.01;42.92;99625.53;1986875;89;32972;-70
2022/08/19 08:19:44;;;;;;;11.88;10.28;;;;;;;35.21;42.09;99630.02;1998434;88;29321;-73
2022/08/19 08:26:06;;;;;;;12.35;10.72;;;;;;;35.10;41.23;99642.94;2002787;88;28882;-73
2022/08/19 08:29:12;;;;;;;17.05;11.65;;;;;;;34.95;41.32;99646.33;1973293;88;31018;-69
2022/08/19 08:32:15;;;;;;;13.58;7.50;;;;;;;34.91;41.69;99642.35;2017459;88;33664;-73
2022/08/19 08:35:21;;;;;;;18.02;10.25;;;;;;;35.05;41.52;99639.24;2017709;87;29444;-73
2022/08/19 08:38:23;;;;;;;10.10;8.90;;;;;;;35.40;41.22;99627.77;2004050;88;27746;-74
2022/08/19 08:41:55;;;;;;;12.45;10.10;;;;;;;35.68;40.64;99624.52;2003928;88;28725;-73
2022/08/19 08:45:15;;;;;;;14.83;8.05;;;;;;;35.69;39.73;99615.62;2003782;88;31090;-74
2022/08/19 08:48:27;;;;;;;6.28;5.53;;;;;;;35.66;39.45;99616.14;2003399;88;33034;-73
2022/08/19 08:51:45;;;;;;;11.05;8.00;;;;;;;35.49;39.44;99617.05;2002610;88;29346;-74
2022/08/19 08:54:56;;;;;;;13.35;9.48;;;;;;;35.53;39.34;99622.41;2000601;88;28011;-67
2022/08/19 08:58:08;;;;;;;14.05;9.00;;;;;;;35.48;38.96;99618.71;2000182;88;27996;-68
2022/08/19 09:01:18;;;;;;;4.95;4.00;;;;;;;35.35;39.15;99615.72;1999027;88;28037;-71
2022/08/19 09:04:27;;;;;;;4.15;3.50;;;;;;;35.32;38.85;99614.83;1998978;88;33090;-71
2022/08/19 09:08:08;;;;;;;13.35;9.05;;;;;;;35.12;38.35;99612.05;1998269;88;29557;-71
2022/08/19 09:11:16;;;;;;;2.98;2.70;;;;;;;34.89;38.47;99609.75;2001780;87;27918;-72
2022/08/19 09:14:41;;;;;;;5.80;3.85;;;;;;;34.87;38.90;99604.98;2000560;88;28704;-68
2022/08/19 09:17:49;;;;;;;6.95;4.58;;;;;;;34.93;38.62;99598.41;2000725;88;27896;-67
2022/08/19 09:20:55;;;;;;;8.55;5.40;;;;;;;34.81;38.55;99595.72;1994530;88;32947;-68
2022/08/19 09:24:07;;;;;;;13.48;9.60;;;;;;;34.73;38.07;99599.48;1973247;90;29561;-70
2022/08/19 09:27:18;;;;;;;7.05;5.42;;;;;;;34.64;38.11;99604.63;1973041;90;28030;-68
2022/08/19 09:30:28;;;;;;;11.83;7.83;;;;;;;34.57;38.41;99615.06;1972330;90;27930;-67
2022/08/19 09:33:38;;;;;;;13.90;9.63;;;;;;;34.44;38.58;99618.48;1972874;90;31362;-70
2022/08/19 09:36:45;;;;;;;14.13;9.15;;;;;;;34.43;38.76;99615.93;1973220;89;33623;-67
2022/08/19 09:39:49;;;;;;;12.05;6.47;;;;;;;34.39;38.49;99608.08;1972817;90;29409;-68
2022/08/19 09:42:56;;;;;;;;;;;;;;;34.34;38.37;99607.13;1974795;90;27996;-67
2022/08/19 09:46:03;;;;;;;9.23;7.85;;;;;;;34.26;37.96;99616.72;1973214;90;28749;-68
2022/08/19 09:49:13;;;;;;;11.60;9.05;;;;;;;34.05;38.08;99615.50;1972752;90;31743;-69
2022/08/19 09:52:18;;;;;;;12.93;9.00;;;;;;;33.82;38.55;99612.25;1956176;90;33001;-69
2022/08/19 09:55:21;;;;;;;12.93;9.20;;;;;;;33.63;38.27;99613.28;1972972;89;29428;-68
2022/08/19 09:58:27;;;;;;;11.57;9.60;;;;;;;33.43;38.66;99609.52;1975965;90;27945;-67
2022/08/19 10:01:30;;;;;;;;;;;;;;;33.31;38.20;99616.99;1975206;89;28681;-67
2022/08/19 10:08:01;;;;;;;9.25;5.80;;;;;;;32.94;39.54;99613.95;1972757;90;33012;-66
2022/08/19 10:11:06;;;;;;;;;;;;;;;32.95;39.67;99613.39;1975656;90;29343;-69
2022/08/19 10:14:09;;;;;;;5.97;5.35;;;;;;;32.91;39.67;99615.81;1975829;90;27961;-68
2022/08/19 10:17:17;;;;;;;8.18;6.28;;;;;;;32.76;40.02;99609.87;1974602;90;29136;-68
2022/08/19 10:20:22;;;;;;;10.98;6.60;;;;;;;32.73;40.43;99613.42;1976002;90;31032;-66
2022/08/19 10:23:30;;;;;;;10.68;7.53;;;;;;;32.72;40.44;99620.61;1986329;89;32965;-67
2022/08/19 10:26:38;;;;;;;9.43;4.33;;;;;;;32.78;40.80;99625.73;1987158;89;29395;-69
2022/08/19 10:29:42;;;;;;;12.15;7.65;;;;;;;32.86;40.90;99619.84;1990141;89;27934;-66
2022/08/19 10:32:47;;;;;;;14.90;7.62;;;;;;;32.80;40.39;99620.80;1987002;89;29193;-65
2022/08/19 10:36:04;;;;;;;4.10;3.15;;;;;;;32.75;40.49;99615.97;1987185;89;31248;-68
2022/08/19 10:39:13;;;;;;;6.28;5.20;;;;;;;32.75;40.33;99604.87;1987259;89;33052;-66
2022/08/19 10:42:18;;;;;;;13.43;7.30;;;;;;;32.74;40.37;99601.80;1965146;89;29305;-68
2022/08/19 10:45:25;;;;;;;3.83;3.25;;;;;;;32.63;40.43;99597.92;1987425;89;27949;-68
2022/08/19 10:48:29;;;;;;;12.30;6.60;;;;;;;32.63;40.53;99597.06;1990073;89;28694;-67
2022/08/19 10:58:22;;;;;;;6.92;4.67;;;;;;;32.74;40.07;99597.64;1968809;89;29395;-69
2022/08/19 11:01:22;;;;;;;12.40;6.22;;;;;;;32.79;40.39;99603.84;1989738;89;27642;-67
2022/08/19 11:04:33;;;;;;;12.28;6.62;;;;;;;32.85;40.31;99595.96;1986771;88;28654;-73
2022/08/19 11:07:37;;;;;;;8.03;6.42;;;;;;;32.97;40.60;99600.13;1989677;89;31105;-71
2022/08/19 11:10:42;;;;;;;7.08;6.10;;;;;;;33.05;40.47;99605.33;1990200;89;33064;-70
2022/08/19 11:13:45;;;;;;;6.92;5.78;;;;;;;33.17;40.03;99602.55;1989671;88;29379;-71
2022/08/19 11:16:51;;;;;;;5.75;3.12;;;;;;;33.26;40.30;99602.47;1990067;89;27869;-71
2022/08/19 11:19:53;;;;;;;5.92;5.12;;;;;;;33.33;39.72;99596.77;1985257;89;28688;-70
2022/08/19 11:22:56;;;;;;;5.90;4.28;;;;;;;33.33;39.39;99592.08;1970549;88;30795;-80
2022/08/19 11:26:06;;;;;;;8.00;4.42;;;;;;;33.25;39.75;99585.50;1975658;89;33021;-69
2022/08/19 11:29:17;;;;;;;4.22;3.83;;;;;;;33.18;39.36;99591.19;1971740;89;29433;-68
2022/08/19 11:32:20;;;;;;;6.33;2.75;;;;;;;33.14;40.03;99592.75;1972391;90;27963;-71
2022/08/19 11:35:26;;;;;;;9.55;4.33;;;;;;;33.15;39.76;99597.22;1972736;90;28765;-71
2022/08/19 11:38:31;;;;;;;6.03;3.70;;;;;;;33.16;39.84;99596.70;1972524;90;31289;-69
2022/08/19 11:41:37;;;;;;;10.30;4.80;;;;;;;33.18;39.96;99591.72;1981035;89;32988;-70
2022/08/19 11:44:41;;;;;;;9.25;4.22;;;;;;;33.15;39.95;99595.83;1983716;89;29330;-70
2022/08/19 11:47:46;;;;;;;6.50;5.62;;;;;;;33.12;40.08;99601.03;1928493;90;27739;-70
2022/08/19 11:51:00;;;;;;;6.22;4.08;;;;;;;33.11;39.95;99606.28;1994817;89;28707;-69
2022/08/19 11:54:04;;;;;;;7.15;3.83;;;;;;;33.08;40.04;99604.85;1945695;91;31280;-69
2022/08/19 11:57:07;;;;;;;3.72;3.08;;;;;;;33.07;39.95;99609.23;1949915;90;32976;-69
2022/08/19 12:00:15;;;;;;;4.22;3.05;;;;;;;33.11;40.39;99608.50;1946223;90;29384;-69
2022/08/19 12:03:26;;;;;;;7.03;4.08;;;;;;;33.20;40.35;99605.37;1948169;91;27836;-68
2022/08/19 12:06:34;;;;;;;6.22;3.95;;;;;;;33.32;40.26;99595.09;1945360;90;27943;-69
2022/08/19 12:09:42;;;;;;;6.35;4.67;;;;;;;33.39;39.65;99598.62;1939136;91;31726;-68
2022/08/19 12:12:51;;;;;;;6.58;3.95;;;;;;;33.41;39.60;99592.80;1946585;90;34067;-68
2022/08/19 12:15:58;;;;;;;5.47;3.45;;;;;;;33.37;39.20;99591.59;1946795;91;29408;-66
2022/08/19 12:19:04;;;;;;;3.60;3.20;;;;;;;33.31;39.33;99581.77;1947321;90;27896;-69
2022/08/19 12:22:12;;;;;;;8.30;4.20;;;;;;;33.27;39.42;99582.47;1936760;91;28669;-65
2022/08/19 12:25:17;;;;;;;4.83;3.58;;;;;;;33.18;39.15;99575.92;1946722;89;31081;-69
2022/08/19 12:28:22;;;;;;;3.15;2.80;;;;;;;33.08;39.21;99588.20;1936352;91;33072;-66
2022/08/19 12:31:28;;;;;;;4.87;3.58;;;;;;;33.08;39.17;99584.56;1946940;90;29298;-68
2022/08/19 12:34:34;;;;;;;3.40;3.05;;;;;;;33.03;39.10;99585.30;1946942;90;27948;-68
2022/08/19 12:37:42;;;;;;;3.37;2.92;;;;;;;32.97;39.10;99583.48;1946805;90;28655;-67
2022/08/19 12:40:51;;;;;;;4.95;3.40;;;;;;;32.96;39.00;99588.72;1946401;90;31223;-69
2022/08/19 12:43:58;;;;;;;5.80;3.83;;;;;;;32.96;37.83;99590.11;1945726;90;33627;-69
2022/08/19 12:47:04;;;;;;;7.15;4.92;;;;;;;32.95;38.40;99589.28;1945808;90;29394;-69
2022/08/19 12:50:10;;;;;;;3.35;3.05;;;;;;;32.94;37.38;99593.67;1946046;91;27874;-70
2022/08/19 12:53:18;;;;;;;3.90;3.52;;;;;;;32.90;37.88;99591.09;1928950;91;30024;-70
2022/08/19 12:56:30;;;;;;;5.50;3.30;;;;;;;32.91;37.94;99593.62;1907722;92;31745;-69
2022/08/19 12:59:41;;;;;;;4.37;3.00;;;;;;;32.93;38.18;99598.39;1907215;93;33534;-69
2022/08/19 13:02:50;;;;;;;4.12;3.17;;;;;;;32.93;38.08;99590.63;1908004;93;29348;-70
2022/08/19 13:05:56;;;;;;;4.22;3.50;;;;;;;32.90;38.20;99593.31;1940736;91;28013;-69
2022/08/19 13:09:02;;;;;;;7.47;3.62;;;;;;;32.87;37.68;99588.24;1940753;91;28654;-69
2022/08/19 13:12:12;;;;;;;6.53;4.15;;;;;;;32.82;38.01;99583.42;1940273;91;31034;-69
2022/08/19 13:15:20;;;;;;;7.00;4.50;;;;;;;32.87;38.23;99586.86;1940857;91;32981;-70
2022/08/19 13:18:25;;;;;;;5.55;4.30;;;;;;;32.91;38.46;99585.30;1921294;91;29348;-69
2022/08/19 13:21:34;;;;;;;6.08;4.20;;;;;;;32.92;38.58;99581.44;1940761;91;27858;-70
2022/08/19 13:24:44;;;;;;;3.55;3.25;;;;;;;32.94;38.74;99582.05;1982569;87;28893;-69
2022/08/19 13:27:50;;;;;;;4.15;3.60;;;;;;;32.95;38.90;99577.33;2010004;87;31066;-69
2022/08/19 13:34:29;;;;;;;6.50;4.37;;;;;;;32.82;38.03;99583.98;2009225;88;29443;-65
2022/08/19 13:37:41;;;;;;;3.72;3.17;;;;;;;32.75;37.98;99586.84;1989514;88;27479;-68
2022/08/19 13:40:50;;;;;;;5.80;3.58;;;;;;;32.72;38.27;99580.39;1968948;89;27391;-66
2022/08/19 13:43:56;;;;;;;4.17;3.52;;;;;;;32.76;38.29;99586.29;1979464;88;31052;-69
2022/08/19 13:47:07;;;;;;;7.50;5.25;;;;;;;32.78;38.34;99581.35;1979594;89;33529;-68
2022/08/19 13:50:19;;;;;;;9.70;3.95;;;;;;;32.78;38.03;99584.13;1979226;88;29496;-69
2022/08/19 13:53:26;;;;;;;6.17;3.80;;;;;;;32.78;38.20;99586.34;1979023;89;28003;-66
2022/08/19 13:56:34;;;;;;;5.12;4.00;;;;;;;32.77;37.84;99584.65;1979424;89;28697;-66
2022/08/19 13:59:43;;;;;;;7.65;4.10;;;;;;;32.75;38.22;99586.84;1979695;89;31066;-68
2022/08/19 14:02:48;;;;;;;4.97;3.02;;;;;;;32.73;37.99;99595.95;1979567;88;33028;-68
2022/08/19 14:05:53;;;;;;;7.05;3.83;;;;;;;32.69;38.20;99595.56;1968797;89;29333;-65
2022/08/19 14:08:56;;;;;;;4.60;3.60;;;;;;;32.69;38.26;99594.73;1982330;88;27945;-68
2022/08/19 14:12:04;;;;;;;13.13;4.83;;;;;;;32.66;38.00;99586.89;1979123;88;27965;-66
2022/08/19 14:15:13;;;;;;;4.03;3.40;;;;;;;32.62;38.15;99587.91;1979531;89;32194;-65
2022/08/19 14:18:22;;;;;;;6.20;3.72;;;;;;;32.58;38.48;99582.54;1979468;89;32970;-68
2022/08/19 14:21:30;;;;;;;5.20;3.40;;;;;;;32.56;38.61;99582.79;1979521;88;29390;-65
2022/08/19 14:24:34;;;;;;;6.40;3.98;;;;;;;32.56;38.37;99587.47;1985251;88;27905;-65
2022/08/19 14:27:40;;;;;;;4.62;3.77;;;;;;;32.55;38.84;99581.63;1957328;89;28453;-66
2022/08/19 14:30:47;;;;;;;3.77;3.47;;;;;;;32.60;38.92;99578.98;1984097;89;31020;-65
2022/08/19 14:33:55;;;;;;;4.85;3.40;;;;;;;32.59;38.91;99575.91;1984118;89;32991;-66
2022/08/19 14:37:03;;;;;;;4.50;3.98;;;;;;;32.58;39.04;99569.53;1983989;89;29334;-69
2022/08/19 14:40:14;;;;;;;4.10;3.55;;;;;;;32.53;39.33;99573.56;1984091;89;28008;-65
2022/08/19 14:43:20;;;;;;;5.25;3.47;;;;;;;32.49;39.45;99565.97;1984041;89;28749;-66
2022/08/19 14:46:27;;;;;;;4.83;3.80;;;;;;;32.45;39.58;99575.84;1983621;89;30822;-69
2022/08/19 14:49:35;;;;;;;8.43;3.90;;;;;;;32.37;39.72;99568.16;1984120;89;33056;-66
2022/08/19 14:52:45;;;;;;;5.30;3.80;;;;;;;32.30;39.63;99563.80;1983664;89;29434;-66
2022/08/19 14:55:50;;;;;;;3.85;3.33;;;;;;;32.25;40.20;99570.90;1983955;89;28017;-65
2022/08/19 14:58:58;;;;;;;5.65;3.83;;;;;;;32.21;40.29;99563.27;1984247;89;28719;-66
2022/08/19 15:02:04;;;;;;;7.05;4.40;;;;;;;32.16;40.32;99569.53;1983975;88;28009;-66
2022/08/19 15:05:12;;;;;;;5.67;4.17;;;;;;;32.08;40.28;99567.12;1984803;88;32963;-67